createdAt,value
2019-03-10T00:00:59.264Z,1.27
2019-03-10T00:02:04.243Z,1.30
2019-03-10T00:03:08.567Z,1.42
2019-03-10T00:04:12.780Z,1.35
2019-03-10T00:05:17.009Z,1.87
2019-03-10T00:06:21.331Z,1.65
2019-03-10T00:07:25.715Z,1.00
2019-03-10T00:08:29.946Z,1.75
2019-03-10T00:09:34.323Z,1.57
2019-03-10T00:10:38.577Z,1.82
2019-03-10T00:11:42.773Z,1.35
2019-03-10T00:12:47.033Z,1.30
2019-03-10T00:13:51.283Z,1.30
2019-03-10T00:14:55.627Z,1.60
2019-03-10T00:16:00.212Z,1.45
2019-03-10T00:17:04.511Z,1.72
2019-03-10T00:18:08.833Z,1.60
2019-03-10T00:19:13.173Z,1.65
2019-03-10T00:20:17.512Z,1.35
2019-03-10T00:21:21.763Z,1.22
2019-03-10T00:22:26.083Z,1.75
2019-03-10T00:23:30.325Z,1.17
2019-03-10T00:24:34.627Z,1.67
2019-03-10T00:25:38.851Z,1.50
2019-03-10T00:26:43.131Z,1.60
2019-03-10T00:27:47.490Z,1.25
2019-03-10T00:28:51.767Z,1.60
2019-03-10T00:29:56.152Z,1.70
2019-03-10T00:31:00.324Z,1.45
2019-03-10T00:32:04.541Z,1.57
2019-03-10T00:33:08.827Z,1.65
2019-03-10T00:34:13.049Z,1.40
2019-03-10T00:35:17.487Z,2.33
2019-03-10T00:36:21.903Z,1.50
2019-03-10T00:37:26.481Z,1.60
2019-03-10T00:38:43.651Z,1.40
2019-03-10T00:40:37.361Z,2.05
2019-03-10T00:42:24.564Z,1.60
2019-03-10T00:44:07.120Z,1.30
2019-03-10T00:45:42.395Z,1.10
2019-03-10T00:47:36.583Z,1.35
2019-03-10T00:49:27.863Z,1.67
2019-03-10T00:51:25.332Z,1.25
2019-03-10T00:52:34.290Z,1.52
2019-03-10T00:53:38.582Z,1.07
2019-03-10T00:54:42.838Z,1.40
2019-03-10T00:55:47.441Z,1.90
2019-03-10T00:56:51.800Z,1.30
2019-03-10T00:57:56.088Z,1.40
2019-03-10T00:59:00.373Z,1.20
2019-03-10T01:00:05.760Z,1.82
2019-03-10T01:01:10.047Z,1.77
2019-03-10T01:02:14.530Z,1.27
2019-03-10T01:03:18.871Z,1.82
2019-03-10T01:04:23.048Z,0.90
2019-03-10T01:05:27.369Z,1.20
2019-03-10T01:06:31.626Z,1.40
2019-03-10T01:07:36.131Z,1.42
2019-03-10T01:08:40.535Z,1.50
2019-03-10T01:09:44.692Z,2.15
2019-03-10T01:10:49.003Z,1.30
2019-03-10T01:11:53.559Z,1.75
2019-03-10T01:12:58.067Z,1.10
2019-03-10T01:14:02.337Z,1.62
2019-03-10T01:15:08.609Z,1.67
2019-03-10T01:16:13.209Z,1.60
2019-03-10T01:17:18.371Z,1.45
2019-03-10T01:18:24.297Z,1.50
2019-03-10T01:19:29.167Z,1.35
2019-03-10T01:20:33.447Z,1.00
2019-03-10T01:21:39.603Z,1.57
2019-03-10T01:22:43.821Z,1.50
2019-03-10T01:23:48.115Z,1.00
2019-03-10T01:24:52.411Z,1.62
2019-03-10T01:25:56.700Z,1.00
2019-03-10T01:27:00.917Z,1.60
2019-03-10T01:28:05.180Z,1.17
2019-03-10T01:29:09.505Z,1.00
2019-03-10T01:30:16.205Z,1.20
2019-03-10T01:31:29.309Z,1.50
2019-03-10T01:33:16.032Z,1.17
2019-03-10T01:34:43.545Z,1.20
2019-03-10T01:35:47.839Z,1.50
2019-03-10T01:36:52.079Z,1.40
2019-03-10T01:37:56.305Z,1.90
2019-03-10T01:39:00.599Z,1.40
2019-03-10T01:40:05.833Z,1.60
2019-03-10T01:41:10.191Z,1.67
2019-03-10T01:42:14.484Z,1.17
2019-03-10T01:43:18.780Z,1.75
2019-03-10T01:44:23.307Z,1.30
2019-03-10T01:45:27.480Z,1.07
2019-03-10T01:46:31.748Z,1.27
2019-03-10T01:47:36.127Z,1.20
2019-03-10T01:48:40.393Z,1.65
2019-03-10T01:49:44.761Z,1.50
2019-03-10T01:50:49.099Z,1.17
2019-03-10T01:51:53.399Z,1.50
2019-03-10T01:52:57.569Z,1.07
2019-03-10T01:54:01.931Z,1.50
2019-03-10T01:55:06.626Z,1.10
2019-03-10T01:56:10.880Z,1.70
2019-03-10T01:57:15.097Z,1.47
2019-03-10T01:58:19.233Z,1.32
2019-03-10T01:59:23.541Z,1.20
2019-03-10T02:00:28.201Z,2.22
2019-03-10T02:01:32.584Z,1.30
2019-03-10T02:02:36.924Z,1.55
2019-03-10T02:03:41.104Z,1.20
2019-03-10T02:04:45.715Z,1.65
2019-03-10T02:05:49.957Z,1.70
2019-03-10T02:06:54.248Z,1.75
2019-03-10T02:07:58.527Z,1.50
2019-03-10T02:09:03.004Z,1.75
2019-03-10T02:10:08.167Z,1.45
2019-03-10T02:11:12.431Z,2.30
2019-03-10T02:12:16.638Z,1.67
2019-03-10T02:13:20.980Z,1.90
2019-03-10T02:14:25.158Z,1.50
2019-03-10T02:15:29.401Z,1.50
2019-03-10T02:16:33.631Z,1.27
2019-03-10T02:17:37.910Z,1.67
2019-03-10T02:18:42.161Z,1.37
2019-03-10T02:19:46.347Z,1.25
2019-03-10T02:20:50.475Z,1.20
2019-03-10T02:21:54.738Z,1.50
2019-03-10T02:22:59.117Z,1.37
2019-03-10T02:24:03.429Z,1.50
2019-03-10T02:25:07.717Z,1.45
2019-03-10T02:26:12.014Z,1.60
2019-03-10T02:27:16.224Z,1.30
2019-03-10T02:28:20.405Z,1.40
2019-03-10T02:29:24.677Z,1.47
2019-03-10T02:30:28.937Z,1.50
2019-03-10T02:31:33.214Z,1.55
2019-03-10T02:32:37.426Z,1.60
2019-03-10T02:33:41.972Z,1.60
2019-03-10T02:34:46.146Z,1.40
2019-03-10T02:35:50.520Z,1.32
2019-03-10T02:36:54.863Z,1.35
2019-03-10T02:37:59.205Z,1.70
2019-03-10T02:39:04.750Z,1.62
2019-03-10T02:40:09.767Z,1.62
2019-03-10T02:41:14.170Z,1.82
2019-03-10T02:42:18.397Z,1.60
2019-03-10T02:43:22.767Z,1.65
2019-03-10T02:44:27.118Z,1.50
2019-03-10T02:45:31.436Z,1.47
2019-03-10T02:46:35.646Z,1.67
2019-03-10T02:47:39.937Z,1.30
2019-03-10T02:48:44.626Z,1.50
2019-03-10T02:49:48.764Z,1.77
2019-03-10T02:50:53.068Z,1.52
2019-03-10T02:51:57.277Z,1.50
2019-03-10T02:53:01.528Z,1.70
2019-03-10T02:54:05.852Z,1.70
2019-03-10T02:55:10.141Z,1.57
2019-03-10T02:56:14.757Z,2.08
2019-03-10T02:57:19.390Z,1.90
2019-03-10T02:58:23.747Z,1.60
2019-03-10T02:59:28.118Z,1.50
2019-03-10T03:00:32.286Z,1.80
2019-03-10T03:01:36.460Z,1.65
2019-03-10T03:02:40.744Z,1.75
2019-03-10T03:03:45.004Z,1.45
2019-03-10T03:04:49.231Z,1.75
2019-03-10T03:05:53.578Z,1.50
2019-03-10T03:06:57.865Z,1.40
2019-03-10T03:08:02.076Z,1.75
2019-03-10T03:09:06.831Z,1.32
2019-03-10T03:10:12.453Z,1.65
2019-03-10T03:11:16.687Z,1.40
2019-03-10T03:12:20.968Z,1.92
2019-03-10T03:13:25.267Z,1.70
2019-03-10T03:14:29.545Z,1.40
2019-03-10T03:15:34.159Z,1.60
2019-03-10T03:16:38.353Z,1.50
2019-03-10T03:17:42.633Z,2.25
2019-03-10T03:18:46.837Z,1.70
2019-03-10T03:19:51.226Z,1.67
2019-03-10T03:20:55.570Z,1.45
2019-03-10T03:22:00.202Z,1.30
2019-03-10T03:23:04.467Z,1.80
2019-03-10T03:24:08.728Z,1.30
2019-03-10T03:25:13.366Z,1.60
2019-03-10T03:26:17.585Z,1.65
2019-03-10T03:27:21.905Z,1.50
2019-03-10T03:28:26.119Z,1.47
2019-03-10T03:29:30.496Z,2.10
2019-03-10T03:30:34.946Z,1.70
2019-03-10T03:31:39.149Z,1.25
2019-03-10T03:32:43.308Z,1.90
2019-03-10T03:33:47.658Z,1.50
2019-03-10T03:34:51.924Z,1.80
2019-03-10T03:36:03.244Z,1.80
2019-03-10T03:37:09.105Z,1.57
2019-03-10T03:38:13.293Z,1.60
2019-03-10T03:39:27.475Z,2.10
2019-03-10T03:40:32.109Z,1.30
2019-03-10T03:41:36.459Z,1.70
2019-03-10T03:42:40.644Z,1.80
2019-03-10T03:43:44.912Z,1.47
2019-03-10T03:44:49.093Z,2.20
2019-03-10T03:45:53.409Z,1.75
2019-03-10T03:46:57.676Z,2.15
2019-03-10T03:48:01.864Z,1.35
2019-03-10T03:49:06.217Z,1.50
2019-03-10T03:50:10.528Z,1.52
2019-03-10T03:51:14.879Z,1.60
2019-03-10T03:52:19.248Z,1.80
2019-03-10T03:53:23.572Z,1.75
2019-03-10T03:54:27.767Z,1.52
2019-03-10T03:55:32.020Z,1.80
2019-03-10T03:56:36.359Z,1.55
2019-03-10T03:57:40.567Z,1.30
2019-03-10T03:58:44.714Z,1.37
2019-03-10T03:59:48.836Z,1.27
2019-03-10T04:00:58.939Z,1.87
2019-03-10T04:02:16.269Z,1.50
2019-03-10T04:03:20.930Z,1.82
2019-03-10T04:04:25.109Z,1.62
2019-03-10T04:05:29.442Z,1.60
2019-03-10T04:06:33.676Z,1.15
2019-03-10T04:07:37.972Z,1.35
2019-03-10T04:08:42.271Z,1.95
2019-03-10T04:09:46.596Z,1.20
2019-03-10T04:10:50.859Z,1.80
2019-03-10T04:11:55.098Z,1.80
2019-03-10T04:12:59.362Z,1.30
2019-03-10T04:14:03.678Z,1.20
2019-03-10T04:15:08.069Z,1.55
2019-03-10T04:16:12.322Z,1.50
2019-03-10T04:17:16.524Z,1.80
2019-03-10T04:18:20.811Z,1.60
2019-03-10T04:19:25.146Z,1.00
2019-03-10T04:20:29.440Z,1.42
2019-03-10T04:21:33.716Z,1.22
2019-03-10T04:22:37.903Z,1.40
2019-03-10T04:23:42.205Z,1.50
2019-03-10T04:24:46.440Z,1.50
2019-03-10T04:25:50.595Z,1.10
2019-03-10T04:26:54.855Z,1.95
2019-03-10T04:27:59.016Z,1.30
2019-03-10T04:29:03.288Z,1.72
2019-03-10T04:30:08.522Z,1.52
2019-03-10T04:31:12.688Z,1.60
2019-03-10T04:32:16.925Z,1.30
2019-03-10T04:33:21.231Z,1.60
2019-03-10T04:34:25.483Z,1.30
2019-03-10T04:35:29.784Z,1.32
2019-03-10T04:36:34.045Z,1.47
2019-03-10T04:37:38.323Z,1.40
2019-03-10T04:38:42.642Z,1.35
2019-03-10T04:39:46.865Z,1.45
2019-03-10T04:40:51.086Z,1.60
2019-03-10T04:41:55.359Z,1.57
2019-03-10T04:42:59.700Z,1.25
2019-03-10T04:44:04.007Z,1.25
2019-03-10T04:45:08.621Z,1.30
2019-03-10T04:46:12.866Z,1.57
2019-03-10T04:47:17.051Z,1.72
2019-03-10T04:48:21.361Z,1.27
2019-03-10T04:49:25.489Z,1.35
2019-03-10T04:50:29.781Z,1.10
2019-03-10T04:51:33.994Z,1.42
2019-03-10T04:52:38.309Z,1.30
2019-03-10T04:53:42.488Z,1.52
2019-03-10T04:55:05.725Z,1.20
2019-03-10T04:56:30.238Z,1.37
2019-03-10T04:57:34.515Z,1.10
2019-03-10T04:58:42.559Z,1.40
2019-03-10T04:59:46.792Z,1.30
2019-03-10T05:00:53.383Z,1.42
2019-03-10T05:01:57.633Z,1.20
2019-03-10T05:03:01.958Z,1.40
2019-03-10T05:04:06.284Z,1.27
2019-03-10T05:05:10.665Z,1.57
2019-03-10T05:06:14.921Z,2.05
2019-03-10T05:07:19.220Z,1.32
2019-03-10T05:08:23.560Z,1.22
2019-03-10T05:09:27.751Z,1.40
2019-03-10T05:10:32.031Z,1.40
2019-03-10T05:11:36.244Z,1.20
2019-03-10T05:12:40.440Z,1.35
2019-03-10T05:13:44.727Z,1.10
2019-03-10T05:14:48.963Z,1.22
2019-03-10T05:15:53.232Z,1.02
2019-03-10T05:16:57.453Z,1.42
2019-03-10T05:18:01.741Z,1.57
2019-03-10T05:19:05.933Z,1.00
2019-03-10T05:20:10.358Z,1.30
2019-03-10T05:21:14.671Z,1.20
2019-03-10T05:22:19.013Z,1.30
2019-03-10T05:23:31.467Z,1.40
2019-03-10T05:24:35.830Z,1.40
2019-03-10T05:25:40.163Z,1.42
2019-03-10T05:26:44.363Z,1.90
2019-03-10T05:27:48.492Z,1.30
2019-03-10T05:28:52.806Z,1.30
2019-03-10T05:29:57.004Z,1.40
2019-03-10T05:31:01.475Z,1.40
2019-03-10T05:32:05.769Z,1.05
2019-03-10T05:33:09.952Z,1.25
2019-03-10T05:34:14.231Z,1.10
2019-03-10T05:35:18.576Z,1.20
2019-03-10T05:36:22.880Z,1.00
2019-03-10T05:37:27.249Z,1.45
2019-03-10T05:38:31.532Z,1.35
2019-03-10T05:39:36.161Z,1.17
2019-03-10T05:40:40.488Z,1.27
2019-03-10T05:41:45.028Z,1.70
2019-03-10T05:42:49.323Z,1.25
2019-03-10T05:43:53.634Z,1.10
2019-03-10T05:44:57.912Z,1.75
2019-03-10T05:46:02.143Z,2.00
2019-03-10T05:47:06.433Z,2.22
2019-03-10T05:48:10.779Z,2.10
2019-03-10T05:49:15.062Z,1.80
2019-03-10T05:50:19.272Z,2.02
2019-03-10T05:51:23.604Z,1.90
2019-03-10T05:52:27.868Z,1.70
2019-03-10T05:53:32.164Z,1.80
2019-03-10T05:54:36.399Z,2.10
2019-03-10T05:55:40.593Z,1.30
2019-03-10T05:56:44.883Z,1.60
2019-03-10T05:57:49.066Z,1.52
2019-03-10T05:58:53.329Z,1.87
2019-03-10T05:59:57.691Z,1.50
2019-03-10T06:01:01.878Z,2.00
2019-03-10T06:02:06.297Z,1.40
2019-03-10T06:03:11.136Z,2.15
2019-03-10T06:04:15.312Z,1.80
2019-03-10T06:05:19.652Z,1.65
2019-03-10T06:06:23.878Z,2.15
2019-03-10T06:07:28.199Z,1.50
2019-03-10T06:08:32.608Z,1.42
2019-03-10T06:09:37.188Z,1.80
2019-03-10T06:10:41.549Z,1.50
2019-03-10T06:11:45.801Z,1.50
2019-03-10T06:12:50.134Z,1.95
2019-03-10T06:13:54.385Z,1.50
2019-03-10T06:14:58.751Z,2.22
2019-03-10T06:16:02.972Z,1.70
2019-03-10T06:17:07.313Z,1.67
2019-03-10T06:18:14.009Z,2.40
2019-03-10T06:19:17.576Z,1.70
2019-03-10T06:20:21.886Z,1.90
2019-03-10T06:21:26.209Z,2.30
2019-03-10T06:22:30.550Z,2.45
2019-03-10T06:23:34.769Z,1.85
2019-03-10T06:24:39.040Z,2.22
2019-03-10T06:25:43.414Z,2.40
2019-03-10T06:26:48.136Z,1.90
2019-03-10T06:27:52.332Z,1.70
2019-03-10T06:28:57.182Z,1.50
2019-03-10T06:30:01.382Z,1.98
2019-03-10T06:31:05.709Z,1.27
2019-03-10T06:32:09.931Z,1.50
2019-03-10T06:33:14.493Z,1.52
2019-03-10T06:34:18.806Z,1.90
2019-03-10T06:35:22.984Z,1.22
2019-03-10T06:36:27.154Z,1.20
2019-03-10T06:37:31.535Z,1.40
2019-03-10T06:38:35.696Z,1.20
2019-03-10T06:39:39.970Z,1.10
2019-03-10T06:40:44.265Z,1.37
2019-03-10T06:41:48.495Z,1.47
2019-03-10T06:42:52.759Z,1.00
2019-03-10T06:43:56.883Z,1.10
2019-03-10T06:45:01.047Z,0.95
2019-03-10T06:46:05.214Z,1.67
2019-03-10T06:47:09.464Z,1.12
2019-03-10T06:48:13.631Z,1.00
2019-03-10T06:49:18.324Z,0.68
2019-03-10T06:50:22.676Z,0.80
2019-03-10T06:51:26.911Z,1.00
2019-03-10T06:52:31.143Z,0.90
2019-03-10T06:53:35.419Z,0.90
2019-03-10T06:54:39.701Z,0.88
2019-03-10T06:55:43.859Z,1.20
2019-03-10T06:56:48.023Z,1.20
2019-03-10T06:57:52.136Z,0.90
2019-03-10T06:58:59.674Z,0.90
2019-03-10T07:00:04.372Z,0.80
2019-03-10T07:01:08.634Z,0.60
2019-03-10T07:02:12.916Z,0.68
2019-03-10T07:03:17.183Z,1.05
2019-03-10T07:04:21.353Z,0.70
2019-03-10T07:05:25.661Z,1.02
2019-03-10T07:06:30.003Z,0.93
2019-03-10T07:07:34.197Z,1.02
2019-03-10T07:08:38.859Z,0.50
2019-03-10T07:09:43.063Z,1.05
2019-03-10T07:10:47.395Z,0.85
2019-03-10T07:11:51.740Z,0.80
2019-03-10T07:12:55.941Z,0.50
2019-03-10T07:14:00.212Z,0.70
2019-03-10T07:15:05.059Z,0.75
2019-03-10T07:16:09.303Z,0.80
2019-03-10T07:17:13.442Z,0.68
2019-03-10T07:18:17.707Z,1.00
2019-03-10T07:19:21.975Z,0.88
2019-03-10T07:20:26.285Z,0.50
2019-03-10T07:21:30.570Z,0.78
2019-03-10T07:22:34.827Z,0.70
2019-03-10T07:23:39.099Z,1.10
2019-03-10T07:24:43.271Z,0.70
2019-03-10T07:25:49.593Z,0.78
2019-03-10T07:26:53.909Z,0.85
2019-03-10T07:28:17.156Z,0.80
2019-03-10T07:29:27.378Z,0.93
2019-03-10T07:30:56.463Z,1.12
2019-03-10T07:32:19.683Z,0.70
2019-03-10T07:33:48.953Z,0.80
2019-03-10T07:35:11.163Z,1.02
2019-03-10T07:36:34.351Z,1.30
2019-03-10T07:37:49.224Z,1.00
2019-03-10T07:39:13.649Z,1.17
2019-03-10T07:40:34.878Z,1.65
2019-03-10T07:41:46.049Z,1.02
2019-03-10T07:43:09.303Z,0.85
2019-03-10T07:44:30.322Z,1.05
2019-03-10T07:45:43.747Z,1.10
2019-03-10T07:47:02.235Z,1.27
2019-03-10T07:48:19.586Z,1.00
2019-03-10T07:49:31.067Z,1.52
2019-03-10T07:50:47.974Z,1.50
2019-03-10T07:52:23.191Z,1.37
2019-03-10T07:53:45.301Z,1.40
2019-03-10T07:55:08.518Z,1.10
2019-03-10T07:56:37.599Z,2.45
2019-03-10T07:58:00.458Z,2.27
2019-03-10T07:59:29.994Z,2.65
2019-03-10T08:00:51.438Z,1.30
2019-03-10T08:02:13.459Z,1.50
2019-03-10T08:03:39.098Z,1.25
2019-03-10T08:05:02.247Z,1.05
2019-03-10T08:06:24.805Z,1.30
2019-03-10T08:07:46.176Z,1.05
2019-03-10T08:09:00.473Z,1.37
2019-03-10T08:10:11.341Z,1.35
2019-03-10T08:11:27.608Z,2.02
2019-03-10T08:12:53.598Z,1.10
2019-03-10T08:14:14.397Z,1.30
2019-03-10T08:15:32.311Z,1.60
2019-03-10T08:16:54.513Z,1.72
2019-03-10T08:18:12.827Z,2.00
2019-03-10T08:19:34.407Z,1.60
2019-03-10T08:21:02.535Z,1.37
2019-03-10T08:22:34.595Z,1.12
2019-03-10T08:23:57.821Z,1.30
2019-03-10T08:25:14.277Z,1.40
2019-03-10T08:26:36.124Z,1.92
2019-03-10T08:28:01.881Z,1.85
2019-03-10T08:29:14.588Z,1.40
2019-03-10T08:30:27.459Z,1.80
2019-03-10T08:31:52.561Z,1.72
2019-03-10T08:33:18.959Z,2.27
2019-03-10T08:34:40.883Z,2.08
2019-03-10T08:35:58.628Z,2.27
2019-03-10T08:37:14.528Z,3.42
2019-03-10T08:38:37.755Z,2.60
2019-03-10T08:40:06.983Z,2.85
2019-03-10T08:41:39.296Z,1.80
2019-03-10T08:43:06.052Z,1.30
2019-03-10T08:44:27.954Z,1.50
2019-03-10T08:45:44.179Z,1.60
2019-03-10T08:47:13.430Z,1.45
2019-03-10T08:48:45.806Z,2.00
2019-03-10T08:49:54.835Z,1.50
2019-03-10T08:51:33.203Z,2.50
2019-03-10T08:52:41.554Z,1.80
2019-03-10T08:53:51.533Z,2.00
2019-03-10T08:55:01.922Z,1.60
2019-03-10T08:56:16.280Z,2.62
2019-03-10T08:57:31.041Z,2.12
2019-03-10T08:58:57.389Z,2.75
2019-03-10T09:00:19.618Z,2.65
2019-03-10T09:01:45.831Z,2.15
2019-03-10T09:03:09.073Z,2.05
2019-03-10T09:04:50.865Z,2.92
2019-03-10T09:06:12.587Z,1.90
2019-03-10T09:07:35.802Z,2.80
2019-03-10T09:09:02.363Z,3.20
2019-03-10T09:10:32.503Z,2.42
2019-03-10T09:11:45.165Z,1.98
2019-03-10T09:13:01.024Z,1.00
2019-03-10T09:14:31.376Z,1.10
2019-03-10T09:15:43.447Z,1.07
2019-03-10T09:17:22.163Z,1.25
2019-03-10T09:18:57.345Z,0.95
2019-03-10T09:20:23.403Z,0.85
2019-03-10T09:21:49.481Z,0.90
2019-03-10T09:23:12.715Z,0.88
2019-03-10T09:24:27.472Z,1.10
2019-03-10T09:25:49.634Z,1.27
2019-03-10T09:27:21.979Z,1.77
2019-03-10T09:28:36.981Z,2.95
2019-03-10T09:30:00.455Z,3.20
2019-03-10T09:31:23.920Z,2.00
2019-03-10T09:32:48.463Z,2.22
2019-03-10T09:34:24.113Z,1.77
2019-03-10T09:35:42.369Z,1.52
2019-03-10T09:37:24.469Z,2.02
2019-03-10T09:38:50.339Z,1.40
2019-03-10T09:40:16.375Z,2.20
2019-03-10T09:41:42.197Z,2.00
2019-03-10T09:43:10.980Z,1.40
2019-03-10T09:44:29.538Z,1.40
2019-03-10T09:45:52.757Z,1.90
2019-03-10T09:47:14.526Z,2.20
2019-03-10T09:48:40.697Z,1.90
2019-03-10T09:49:55.317Z,2.05
2019-03-10T09:51:18.805Z,2.27
2019-03-10T09:52:44.812Z,2.50
2019-03-10T09:54:00.893Z,2.50
2019-03-10T09:55:13.604Z,2.60
2019-03-10T09:56:42.611Z,3.05
2019-03-10T09:58:20.943Z,2.60
2019-03-10T09:59:47.015Z,2.52
2019-03-10T10:01:06.893Z,2.95
2019-03-10T10:02:36.693Z,3.37
2019-03-10T10:04:08.577Z,3.85
2019-03-10T10:05:38.162Z,4.17
2019-03-10T10:07:01.402Z,3.10
2019-03-10T10:08:27.157Z,3.55
2019-03-10T10:09:50.413Z,3.47
2019-03-10T10:11:18.136Z,4.97
2019-03-10T10:12:39.864Z,4.10
2019-03-10T10:14:09.017Z,2.90
2019-03-10T10:15:41.601Z,2.83
2019-03-10T10:17:07.833Z,2.50
2019-03-10T10:18:49.269Z,2.52
2019-03-10T10:20:18.357Z,1.92
2019-03-10T10:21:41.584Z,2.15
2019-03-10T10:22:58.950Z,1.95
2019-03-10T10:24:28.011Z,2.15
2019-03-10T10:25:40.913Z,1.92
2019-03-10T10:27:12.924Z,1.62
2019-03-10T10:28:37.583Z,1.02
2019-03-10T10:30:09.773Z,1.40
2019-03-10T10:31:33.278Z,1.72
2019-03-10T10:33:02.475Z,1.60
2019-03-10T10:34:31.435Z,1.60
2019-03-10T10:36:00.768Z,1.42
2019-03-10T10:37:22.660Z,1.52
2019-03-10T10:38:44.493Z,1.30
2019-03-10T10:40:07.731Z,1.00
2019-03-10T10:41:33.591Z,1.15
2019-03-10T10:42:46.267Z,0.90
2019-03-10T10:44:07.857Z,0.95
2019-03-10T10:45:33.870Z,0.90
2019-03-10T10:47:09.319Z,1.20
2019-03-10T10:48:27.289Z,1.15
2019-03-10T10:50:08.733Z,1.20
2019-03-10T10:51:41.249Z,1.47
2019-03-10T10:53:22.952Z,0.90
2019-03-10T10:54:52.026Z,1.20
2019-03-10T10:56:27.202Z,0.93
2019-03-10T10:57:46.055Z,1.10
2019-03-10T10:58:58.989Z,0.82
2019-03-10T11:00:22.285Z,1.27
2019-03-10T11:01:53.556Z,0.90
2019-03-10T11:03:12.507Z,1.00
2019-03-10T11:04:29.439Z,0.98
2019-03-10T11:05:58.599Z,1.60
2019-03-10T11:07:08.150Z,1.00
2019-03-10T11:08:29.995Z,0.78
2019-03-10T11:09:40.337Z,0.80
2019-03-10T11:11:04.515Z,0.70
2019-03-10T11:12:25.265Z,0.68
2019-03-10T11:13:44.699Z,0.68
2019-03-10T11:14:58.372Z,0.72
2019-03-10T11:16:21.657Z,0.62
2019-03-10T11:17:47.689Z,0.60
2019-03-10T11:19:13.768Z,0.82
2019-03-10T11:20:40.056Z,0.60
2019-03-10T11:22:09.254Z,0.72
2019-03-10T11:23:26.671Z,0.70
2019-03-10T11:24:38.014Z,0.50
2019-03-10T11:26:10.826Z,0.70
2019-03-10T11:27:43.151Z,0.40
2019-03-10T11:28:54.867Z,0.40
2019-03-10T11:30:27.381Z,0.57
2019-03-10T11:31:43.267Z,0.80
2019-03-10T11:33:18.825Z,0.80
2019-03-10T11:34:43.642Z,0.50
2019-03-10T11:36:18.754Z,0.50
2019-03-10T11:37:42.036Z,0.50
2019-03-10T11:39:05.945Z,0.50
2019-03-10T11:40:29.613Z,0.50
2019-03-10T11:41:43.744Z,0.62
2019-03-10T11:43:05.740Z,0.50
2019-03-10T11:44:44.131Z,0.53
2019-03-10T11:45:59.825Z,0.50
2019-03-10T11:47:32.249Z,0.60
2019-03-10T11:48:49.785Z,0.88
2019-03-10T11:50:01.633Z,0.72
2019-03-10T11:51:27.925Z,0.60
2019-03-10T11:52:55.442Z,0.80
2019-03-10T11:54:23.351Z,0.60
2019-03-10T11:55:42.041Z,0.57
2019-03-10T11:56:58.441Z,0.60
2019-03-10T11:58:26.618Z,0.50
2019-03-10T11:59:35.524Z,0.60
2019-03-10T12:00:45.513Z,0.50
2019-03-10T12:02:17.646Z,0.60
2019-03-10T12:03:56.055Z,0.50
2019-03-10T12:05:22.269Z,0.60
2019-03-10T12:06:48.214Z,0.50
2019-03-10T12:08:10.095Z,0.33
2019-03-10T12:09:20.779Z,0.50
2019-03-10T12:10:25.005Z,0.47
2019-03-10T12:11:29.341Z,0.45
2019-03-10T12:12:33.665Z,0.45
2019-03-10T12:13:37.953Z,0.40
2019-03-10T12:14:42.256Z,0.68
2019-03-10T12:15:46.550Z,0.40
2019-03-10T12:16:50.801Z,0.60
2019-03-10T12:17:55.085Z,0.47
2019-03-10T12:18:59.350Z,0.50
2019-03-10T12:20:04.009Z,0.60
2019-03-10T12:21:08.332Z,0.40
2019-03-10T12:22:12.531Z,0.50
2019-03-10T12:23:16.725Z,0.50
2019-03-10T12:24:20.941Z,0.53
2019-03-10T12:25:25.241Z,0.55
2019-03-10T12:26:29.592Z,0.40
2019-03-10T12:27:33.901Z,0.50
2019-03-10T12:28:38.191Z,0.50
2019-03-10T12:29:42.756Z,0.40
2019-03-10T12:30:47.023Z,0.60
2019-03-10T12:31:51.214Z,1.42
2019-03-10T12:32:55.417Z,0.50
2019-03-10T12:33:59.761Z,0.50
2019-03-10T12:35:04.246Z,0.60
2019-03-10T12:36:08.513Z,0.60
2019-03-10T12:37:12.653Z,0.60
2019-03-10T12:38:16.971Z,0.60
2019-03-10T12:39:21.182Z,0.47
2019-03-10T12:40:25.401Z,0.42
2019-03-10T12:41:30.049Z,0.60
2019-03-10T12:42:34.195Z,0.50
2019-03-10T12:43:38.423Z,0.60
2019-03-10T12:44:42.582Z,0.45
2019-03-10T12:45:46.922Z,0.50
2019-03-10T12:46:51.203Z,0.47
2019-03-10T12:47:55.396Z,0.45
2019-03-10T12:48:59.696Z,0.50
2019-03-10T12:50:04.198Z,0.55
2019-03-10T12:51:08.501Z,0.75
2019-03-10T12:52:12.761Z,0.50
2019-03-10T12:53:16.936Z,0.50
2019-03-10T12:54:21.180Z,0.40
2019-03-10T12:55:25.400Z,0.53
2019-03-10T12:56:29.624Z,0.40
2019-03-10T12:57:33.919Z,0.60
2019-03-10T12:58:38.093Z,0.47
2019-03-10T12:59:42.415Z,0.50
2019-03-10T13:00:46.648Z,0.40
2019-03-10T13:01:50.985Z,0.60
2019-03-10T13:02:55.283Z,0.40
2019-03-10T13:03:59.517Z,0.40
2019-03-10T13:05:03.741Z,0.50
2019-03-10T13:06:08.271Z,0.40
2019-03-10T13:07:12.611Z,0.50
2019-03-10T13:08:16.821Z,0.47
2019-03-10T13:09:21.344Z,0.50
2019-03-10T13:10:25.695Z,0.60
2019-03-10T13:11:30.040Z,0.40
2019-03-10T13:12:34.307Z,0.42
2019-03-10T13:13:38.710Z,0.40
2019-03-10T13:14:42.929Z,0.50
2019-03-10T13:15:47.251Z,0.50
2019-03-10T13:16:51.589Z,0.40
2019-03-10T13:17:55.958Z,0.40
2019-03-10T13:19:00.334Z,0.50
2019-03-10T13:20:05.506Z,0.50
2019-03-10T13:21:09.867Z,0.60
2019-03-10T13:22:14.113Z,0.50
2019-03-10T13:23:18.309Z,0.40
2019-03-10T13:24:22.725Z,0.60
2019-03-10T13:25:26.933Z,0.50
2019-03-10T13:26:31.583Z,0.53
2019-03-10T13:27:35.936Z,0.42
2019-03-10T13:28:40.103Z,0.50
2019-03-10T13:29:44.614Z,0.50
2019-03-10T13:30:48.791Z,0.60
2019-03-10T13:31:53.137Z,0.57
2019-03-10T13:32:57.485Z,0.60
2019-03-10T13:34:01.660Z,0.47
2019-03-10T13:35:06.195Z,0.40
2019-03-10T13:36:10.425Z,0.40
2019-03-10T13:37:14.563Z,0.40
2019-03-10T13:38:18.877Z,0.42
2019-03-10T13:39:23.078Z,0.50
2019-03-10T13:40:27.256Z,0.40
2019-03-10T13:41:31.574Z,0.40
2019-03-10T13:42:35.739Z,0.47
2019-03-10T13:43:39.935Z,0.50
2019-03-10T13:44:44.127Z,0.40
2019-03-10T13:45:48.288Z,0.50
2019-03-10T13:46:52.789Z,0.40
2019-03-10T13:47:57.160Z,0.60
2019-03-10T13:49:01.422Z,0.50
2019-03-10T13:50:06.396Z,0.40
2019-03-10T13:51:10.615Z,0.45
2019-03-10T13:52:14.765Z,0.50
2019-03-10T13:53:19.009Z,0.40
2019-03-10T13:54:23.290Z,0.40
2019-03-10T13:55:27.548Z,0.40
2019-03-10T13:56:31.753Z,0.33
2019-03-10T13:57:35.974Z,0.40
2019-03-10T13:58:40.247Z,0.50
2019-03-10T13:59:44.433Z,0.40
2019-03-10T14:00:48.727Z,0.40
2019-03-10T14:01:53.033Z,0.40
2019-03-10T14:02:57.299Z,0.40
2019-03-10T14:04:01.534Z,0.42
2019-03-10T14:05:06.429Z,0.40
2019-03-10T14:06:10.863Z,0.30
2019-03-10T14:07:15.365Z,0.40
2019-03-10T14:08:19.637Z,0.40
2019-03-10T14:09:24.031Z,0.50
2019-03-10T14:10:28.335Z,0.40
2019-03-10T14:11:32.917Z,0.60
2019-03-10T14:12:37.095Z,0.50
2019-03-10T14:13:41.386Z,0.60
2019-03-10T14:14:45.588Z,0.40
2019-03-10T14:15:49.924Z,0.50
2019-03-10T14:16:54.209Z,0.45
2019-03-10T14:17:58.456Z,0.37
2019-03-10T14:19:02.776Z,0.53
2019-03-10T14:20:07.450Z,0.35
2019-03-10T14:21:11.708Z,0.37
2019-03-10T14:22:15.829Z,0.30
2019-03-10T14:23:20.189Z,0.40
2019-03-10T14:24:24.350Z,0.47
2019-03-10T14:25:28.512Z,0.40
2019-03-10T14:26:32.890Z,0.42
2019-03-10T14:27:37.169Z,0.33
2019-03-10T14:28:41.432Z,0.30
2019-03-10T14:29:45.659Z,0.55
2019-03-10T14:30:49.968Z,0.50
2019-03-10T14:31:54.261Z,0.40
2019-03-10T14:32:58.535Z,0.40
2019-03-10T14:34:02.710Z,0.40
2019-03-10T14:35:07.111Z,0.40
2019-03-10T14:36:11.351Z,0.40
2019-03-10T14:37:15.502Z,0.30
2019-03-10T14:38:19.705Z,0.40
2019-03-10T14:39:24.048Z,0.35
2019-03-10T14:40:28.377Z,0.40
2019-03-10T14:41:32.704Z,0.40
2019-03-10T14:42:36.867Z,0.50
2019-03-10T14:43:41.212Z,0.40
2019-03-10T14:44:45.447Z,0.40
2019-03-10T14:45:49.611Z,0.40
2019-03-10T14:46:53.799Z,0.35
2019-03-10T14:47:58.111Z,0.35
2019-03-10T14:49:02.432Z,0.40
2019-03-10T14:50:07.345Z,0.40
2019-03-10T14:51:16.160Z,0.50
2019-03-10T14:52:28.169Z,0.40
2019-03-10T14:53:32.508Z,0.40
2019-03-10T14:54:36.709Z,0.40
2019-03-10T14:55:41.009Z,0.40
2019-03-10T14:56:45.185Z,0.40
2019-03-10T14:57:49.374Z,0.40
2019-03-10T14:58:53.691Z,0.50
2019-03-10T14:59:57.855Z,0.40
2019-03-10T15:01:02.165Z,0.40
2019-03-10T15:02:06.413Z,0.60
2019-03-10T15:03:10.641Z,0.50
2019-03-10T15:04:14.954Z,0.40
2019-03-10T15:05:19.251Z,0.40
2019-03-10T15:06:23.458Z,0.40
2019-03-10T15:07:27.799Z,0.40
2019-03-10T15:08:32.023Z,0.40
2019-03-10T15:09:36.155Z,0.50
2019-03-10T15:10:40.503Z,0.60
2019-03-10T15:11:44.710Z,0.62
2019-03-10T15:12:48.994Z,0.50
2019-03-10T15:13:53.277Z,0.70
2019-03-10T15:14:57.483Z,0.50
2019-03-10T15:16:01.784Z,0.72
2019-03-10T15:17:06.011Z,0.78
2019-03-10T15:18:10.209Z,0.40
2019-03-10T15:19:14.391Z,0.50
2019-03-10T15:20:21.246Z,0.60
2019-03-10T15:21:24.575Z,0.40
2019-03-10T15:22:28.853Z,0.70
2019-03-10T15:23:33.023Z,0.60
2019-03-10T15:24:37.355Z,0.50
2019-03-10T15:25:41.623Z,0.50
2019-03-10T15:26:46.220Z,0.50
2019-03-10T15:27:50.451Z,0.90
2019-03-10T15:28:54.677Z,0.60
2019-03-10T15:29:59.028Z,1.00